Terminal Aerodrome Forecast
Issued by NWS Newport/Morehead City, NC

Home | Current Version | Previous Version | Text Only | Print | Product List | Glossary On
Versions: 1 2 3 4 5 6 7 8 9 10 11 12 13 14
000
FTUS42 KMHX 150538
TAFEWN
TAF
KEWN 150538Z 1506/1606 01007KT P6SM SCT200
     FM151800 36007KT P6SM SCT020 BKN060
     FM152300 35005KT P6SM BKN020 BKN040
     FM160500 32005KT P6SM BKN030=

USA.gov is the U.S. government's official web portal to all federal, state and local government web resources and services.